Francisco Sa, Brazil
Current Conditions -  °F | °C
As of 4:00 PM on Friday 28 Nov 2014 (Local Time) from SBMK Reporting Station
Thunderstorm Thunderstorm  
Wind Chill: 82°   Ceiling: 10000
Heat Index: 84°   Visibility: 6mi
Dew Point: 64°   Wind: 9mph
Humidity: 54%   Direction: 220°SW
Pressure: 29.94"   Gusts: NA
Location:  16.47°S, 43.49°W
Report Text: SBMK 281800Z 22008KT 9999 TS VCSH SCT040 FEW045CB BKN100 28/18 Q1014
Loading
Personal Weather Stations






























Interactive Weather Map New forecast layout! Learn more

10-Day Weather Forecast

Advertisements
Track Severe Weather on mobile